Time;durP1;ratioP1;P1;durP2;ratioP2;P2;SDS_P1;SDS_P2;PMS_P1;PMS_P2;Temp;Humidity;BMP_temperature;BMP_pressure;BME280_temperature;BME280_humidity;BME280_pressure;Samples;Min_cycle;Max_cycle;Signal;HPM_P1;HPM_P2
2024/01/01 01:39:55;;;;;;;17.83;9.80;;;7.60;99.90;;;;;;5058501;28;20068;-96
2024/01/01 01:42:22;;;;;;;41.40;17.33;;;7.60;99.90;;;;;;4977846;28;20050;-64
2024/01/01 01:44:47;;;;;;;34.15;16.60;;;7.70;99.90;;;;;;4945696;28;20100;-65
2024/01/01 01:47:14;;;;;;;36.78;17.75;;;7.70;99.90;;;;;;4963883;28;20619;-64
2024/01/01 01:49:41;;;;;;;36.33;15.30;;;7.70;99.90;;;;;;4967161;28;20061;-65
2024/01/01 01:52:09;;;;;;;35.33;17.83;;;7.70;99.90;;;;;;4969703;28;20543;-65
2024/01/01 01:54:36;;;;;;;33.63;16.63;;;7.70;99.90;;;;;;4981974;28;20050;-65
2024/01/01 01:57:03;;;;;;;38.88;16.85;;;7.70;99.90;;;;;;4980085;28;20054;-64
2024/01/01 01:59:29;;;;;;;22.05;11.75;;;7.70;99.90;;;;;;4966329;28;20066;-64
2024/01/01 02:01:57;;;;;;;29.63;13.55;;;7.70;99.90;;;;;;4982677;28;20052;-64
2024/01/01 02:04:24;;;;;;;32.25;14.43;;;7.70;99.90;;;;;;4948460;28;20090;-64
2024/01/01 02:06:49;;;;;;;31.30;15.63;;;7.70;99.90;;;;;;4983124;28;20048;-65
2024/01/01 02:09:15;;;;;;;36.35;14.77;;;7.70;99.90;;;;;;4984943;28;20058;-65
2024/01/01 02:11:41;;;;;;;35.50;15.50;;;7.70;99.90;;;;;;4993105;28;20128;-64
2024/01/01 02:14:08;;;;;;;35.90;14.63;;;7.70;99.90;;;;;;4979938;28;20046;-65
2024/01/01 02:16:34;;;;;;;32.75;15.35;;;7.70;99.90;;;;;;4982048;28;20569;-64
2024/01/01 02:19:00;;;;;;;31.88;13.20;;;7.70;99.90;;;;;;4980726;28;20122;-64
2024/01/01 02:21:27;;;;;;;39.83;18.15;;;7.70;99.90;;;;;;4982452;28;20042;-65
2024/01/01 02:23:54;;;;;;;37.90;16.65;;;7.70;99.90;;;;;;4983368;28;20522;-64
2024/01/01 02:26:20;;;;;;;34.40;15.88;;;7.70;99.90;;;;;;4962830;28;20123;-65
2024/01/01 02:28:46;;;;;;;33.53;15.85;;;7.70;99.90;;;;;;4982828;28;20111;-64
2024/01/01 02:31:11;;;;;;;26.67;12.15;;;7.70;99.90;;;;;;4981021;28;20056;-64
2024/01/01 02:33:37;;;;;;;45.03;18.30;;;7.70;99.90;;;;;;4982633;28;20053;-65
2024/01/01 02:36:03;;;;;;;41.05;19.00;;;7.70;99.90;;;;;;4980780;28;20042;-65
2024/01/01 02:38:29;;;;;;;45.30;19.10;;;7.70;99.90;;;;;;4981621;28;20065;-65
2024/01/01 02:40:55;;;;;;;40.17;18.35;;;7.70;99.90;;;;;;4982378;28;20086;-65
2024/01/01 02:43:20;;;;;;;39.15;20.58;;;7.70;99.90;;;;;;4979989;28;20069;-65
2024/01/01 02:45:46;;;;;;;36.83;18.30;;;7.70;99.90;;;;;;4983267;28;20377;-65
2024/01/01 02:48:12;;;;;;;44.25;22.92;;;7.70;99.90;;;;;;4962928;28;20116;-64
2024/01/01 02:50:38;;;;;;;32.70;13.60;;;7.60;99.90;;;;;;4983222;28;20053;-65
2024/01/01 02:53:03;;;;;;;38.33;16.80;;;7.70;99.90;;;;;;4981077;28;20042;-65
2024/01/01 02:55:29;;;;;;;47.28;21.55;;;7.60;99.90;;;;;;4982509;28;20046;-65
2024/01/01 02:57:55;;;;;;;51.60;23.42;;;7.60;99.90;;;;;;4978420;28;20039;-65
2024/01/01 03:00:24;;;;;;;49.80;23.02;;;7.70;99.90;;;;;;4982460;28;20046;-65
2024/01/01 03:02:50;;;;;;;41.20;20.52;;;7.60;99.90;;;;;;4979091;28;20054;-65
2024/01/01 03:05:16;;;;;;;45.70;22.42;;;7.60;99.90;;;;;;4963698;28;20503;-65
2024/01/01 03:07:42;;;;;;;45.15;21.20;;;7.60;99.90;;;;;;4982734;28;20290;-65
2024/01/01 03:10:08;;;;;;;53.15;22.55;;;7.60;99.90;;;;;;4974306;28;20054;-64
2024/01/01 03:12:34;;;;;;;41.75;19.45;;;7.60;99.90;;;;;;4980394;28;20041;-64
2024/01/01 03:15:02;;;;;;;39.35;19.23;;;7.60;99.90;;;;;;4969387;28;20417;-65
2024/01/01 03:17:28;;;;;;;44.28;22.98;;;7.60;99.90;;;;;;4982745;28;20141;-65
2024/01/01 03:19:54;;;;;;;44.42;20.08;;;7.60;99.90;;;;;;4981203;28;20141;-65
2024/01/01 03:22:20;;;;;;;38.35;20.17;;;7.60;99.90;;;;;;4984832;28;20460;-65
2024/01/01 03:24:45;;;;;;;42.90;20.90;;;7.60;99.90;;;;;;4984261;28;20054;-65
2024/01/01 03:27:11;;;;;;;42.53;18.73;;;7.60;99.90;;;;;;4978600;28;20043;-65
2024/01/01 03:29:37;;;;;;;34.30;14.80;;;7.60;99.90;;;;;;4990847;28;20046;-65
2024/01/01 03:32:02;;;;;;;24.48;12.45;;;7.50;99.90;;;;;;4989174;28;20091;-64
2024/01/01 03:34:28;;;;;;;13.07;8.23;;;7.50;99.90;;;;;;4980263;28;20034;-64
2024/01/01 03:36:54;;;;;;;20.73;10.93;;;7.50;99.90;;;;;;4975807;28;20042;-65
2024/01/01 03:39:19;;;;;;;22.98;11.93;;;7.30;99.90;;;;;;4985433;28;21037;-64
2024/01/01 03:41:45;;;;;;;10.40;6.20;;;7.30;99.90;;;;;;4998160;28;20070;-64
2024/01/01 03:44:12;;;;;;;9.05;4.72;;;7.30;99.90;;;;;;4988177;28;20058;-65
2024/01/01 03:46:37;;;;;;;16.40;7.97;;;7.30;99.90;;;;;;4991375;28;20042;-65
2024/01/01 03:49:03;;;;;;;17.00;8.18;;;7.20;99.90;;;;;;4971944;28;20392;-64
2024/01/01 03:51:29;;;;;;;11.52;6.35;;;7.20;99.90;;;;;;4988902;28;20050;-64
2024/01/01 03:53:55;;;;;;;18.73;8.93;;;7.10;99.90;;;;;;4981690;28;20085;-65
2024/01/01 03:56:21;;;;;;;18.83;9.35;;;7.20;99.90;;;;;;4996161;28;20054;-64
2024/01/01 03:58:53;;;;;;;12.32;6.68;;;7.10;99.90;;;;;;4985915;28;20084;-64
2024/01/01 04:01:21;;;;;;;21.48;8.05;;;7.20;99.90;;;;;;4988783;28;20345;-64
2024/01/01 04:03:47;;;;;;;10.95;5.90;;;7.20;99.90;;;;;;4991854;28;20049;-64
2024/01/01 04:06:12;;;;;;;12.35;5.28;;;7.20;99.90;;;;;;4998574;28;20126;-64
2024/01/01 04:08:38;;;;;;;11.85;4.57;;;7.20;99.90;;;;;;4945242;28;20161;-64
2024/01/01 04:11:04;;;;;;;14.30;4.25;;;7.10;99.90;;;;;;4990015;28;20038;-64
2024/01/01 04:13:29;;;;;;;7.97;2.58;;;7.20;99.90;;;;;;4989080;28;20496;-64
2024/01/01 04:15:56;;;;;;;9.07;3.08;;;7.10;99.90;;;;;;4990866;28;20050;-64
2024/01/01 04:18:22;;;;;;;7.20;3.28;;;7.10;99.90;;;;;;4980312;28;20072;-64
2024/01/01 04:20:48;;;;;;;6.45;2.53;;;7.10;99.90;;;;;;5003992;28;20042;-64
2024/01/01 04:23:14;;;;;;;9.35;3.33;;;7.10;99.90;;;;;;4992597;28;20053;-64
2024/01/01 04:25:40;;;;;;;7.15;3.42;;;7.00;99.90;;;;;;4994150;28;20149;-64
2024/01/01 04:28:05;;;;;;;5.00;2.55;;;7.00;99.90;;;;;;4987579;28;20049;-64
2024/01/01 04:30:31;;;;;;;7.22;2.63;;;7.00;99.90;;;;;;4970752;28;20092;-64
2024/01/01 04:32:57;;;;;;;10.43;2.53;;;7.00;99.90;;;;;;4987470;28;20088;-64
2024/01/01 04:35:22;;;;;;;7.80;2.42;;;7.00;99.90;;;;;;4964060;28;20112;-64
2024/01/01 04:37:48;;;;;;;8.18;2.50;;;6.90;99.90;;;;;;4988349;28;20096;-64
2024/01/01 04:40:14;;;;;;;12.93;2.90;;;6.90;99.90;;;;;;4974109;28;20420;-64
2024/01/01 04:42:40;;;;;;;11.80;2.47;;;6.90;99.90;;;;;;4986204;28;20050;-64
2024/01/01 04:45:06;;;;;;;8.60;2.25;;;6.90;99.90;;;;;;4972404;28;20125;-64
2024/01/01 04:47:31;;;;;;;14.15;2.83;;;6.90;99.90;;;;;;4995232;28;20054;-64
2024/01/01 04:49:57;;;;;;;6.28;2.22;;;6.90;99.90;;;;;;4988337;28;20050;-64
2024/01/01 04:52:23;;;;;;;10.48;2.25;;;6.90;99.90;;;;;;4987210;28;20054;-64
2024/01/01 04:54:53;;;;;;;6.13;1.63;;;6.80;99.90;;;;;;4996842;28;20389;-64
2024/01/01 04:57:19;;;;;;;7.80;1.77;;;6.80;99.90;;;;;;4991686;28;20054;-63
2024/01/01 04:59:45;;;;;;;10.73;2.20;;;6.80;99.90;;;;;;4992197;28;20567;-63
2024/01/01 05:02:10;;;;;;;6.22;1.63;;;6.80;99.90;;;;;;4987404;28;20108;-63
2024/01/01 05:04:36;;;;;;;10.80;2.28;;;6.80;99.90;;;;;;4979238;28;20049;-63
2024/01/01 05:07:02;;;;;;;15.93;2.42;;;6.80;99.90;;;;;;4998868;28;20601;-63
2024/01/01 05:09:28;;;;;;;6.95;1.88;;;6.80;99.90;;;;;;4993611;28;20088;-63
2024/01/01 05:11:53;;;;;;;4.63;1.42;;;6.70;99.90;;;;;;4990629;28;20129;-63
2024/01/01 05:14:19;;;;;;;6.40;1.92;;;6.70;99.90;;;;;;4994597;28;20042;-63
2024/01/01 05:16:47;;;;;;;7.68;1.88;;;6.70;99.90;;;;;;5001935;28;20087;-64
2024/01/01 05:19:16;;;;;;;11.32;1.90;;;6.70;99.90;;;;;;4983670;28;20050;-63
2024/01/01 05:21:41;;;;;;;4.30;1.80;;;6.70;99.90;;;;;;4984471;28;20050;-64
2024/01/01 05:24:07;;;;;;;7.95;2.42;;;6.80;99.90;;;;;;4982467;28;20050;-64
2024/01/01 05:26:33;;;;;;;4.43;1.80;;;6.80;99.90;;;;;;4977427;28;20057;-64
2024/01/01 05:29:04;;;;;;;9.77;1.95;;;6.80;99.90;;;;;;4987387;28;20061;-64
2024/01/01 05:31:36;;;;;;;10.63;2.08;;;6.70;99.90;;;;;;4996517;28;20561;-64
2024/01/01 05:34:02;;;;;;;4.57;1.23;;;6.80;99.90;;;;;;4994946;28;20060;-64
2024/01/01 05:36:28;;;;;;;11.35;1.42;;;6.80;99.90;;;;;;4991229;28;20117;-64
2024/01/01 05:38:53;;;;;;;3.60;1.23;;;6.80;99.90;;;;;;4976889;28;20548;-63
2024/01/01 05:41:19;;;;;;;10.70;2.60;;;6.70;99.90;;;;;;4991427;28;20055;-63
2024/01/01 05:43:45;;;;;;;7.13;1.85;;;6.80;99.90;;;;;;4985515;28;20396;-63
2024/01/01 05:46:10;;;;;;;10.10;2.40;;;6.80;99.90;;;;;;4995539;28;20048;-63
2024/01/01 05:48:42;;;;;;;5.20;1.55;;;6.80;99.90;;;;;;4988602;28;20042;-63
2024/01/01 05:51:08;;;;;;;11.35;1.75;;;6.80;99.90;;;;;;4989262;28;20049;-63
2024/01/01 05:53:34;;;;;;;5.25;1.48;;;6.90;99.90;;;;;;4968395;28;20046;-63
2024/01/01 05:56:00;;;;;;;6.40;1.65;;;6.80;99.90;;;;;;4976996;28;20107;-63
2024/01/01 05:58:25;;;;;;;4.57;1.58;;;6.80;99.90;;;;;;4987069;28;20046;-63
2024/01/01 06:00:51;;;;;;;4.00;1.63;;;6.80;99.90;;;;;;4984156;28;20195;-64
2024/01/01 06:03:17;;;;;;;4.25;1.42;;;6.80;99.90;;;;;;4965425;28;20054;-63
2024/01/01 06:05:43;;;;;;;7.47;1.85;;;6.80;99.90;;;;;;4985235;28;20508;-64
2024/01/01 06:08:09;;;;;;;6.00;1.33;;;6.80;99.90;;;;;;4962374;28;20081;-64
2024/01/01 06:10:34;;;;;;;3.67;0.85;;;6.80;99.90;;;;;;4973537;28;20093;-63
2024/01/01 06:13:02;;;;;;;6.65;1.65;;;6.80;99.90;;;;;;4972956;28;20068;-64
2024/01/01 06:15:28;;;;;;;8.80;1.73;;;6.80;99.90;;;;;;4989178;28;20430;-64
2024/01/01 06:17:56;;;;;;;3.58;1.27;;;6.80;99.90;;;;;;4992240;28;20092;-63
2024/01/01 06:20:22;;;;;;;6.97;1.65;;;6.80;99.90;;;;;;4967424;28;20551;-63
2024/01/01 06:22:48;;;;;;;5.43;1.50;;;6.70;99.90;;;;;;4984317;28;20046;-63
2024/01/01 06:25:13;;;;;;;12.45;2.00;;;6.70;99.90;;;;;;4985700;28;20038;-63
2024/01/01 06:27:39;;;;;;;8.27;1.65;;;6.80;99.90;;;;;;4993867;28;20116;-63
2024/01/01 06:30:08;;;;;;;5.30;1.38;;;6.80;99.90;;;;;;4990826;28;20124;-64
2024/01/01 06:32:34;;;;;;;9.23;1.67;;;6.80;99.90;;;;;;4997413;28;20237;-63
2024/01/01 06:34:59;;;;;;;5.35;1.45;;;6.80;99.90;;;;;;5000913;28;20121;-63
2024/01/01 06:37:25;;;;;;;9.63;1.80;;;6.80;99.90;;;;;;4988357;28;20054;-63
2024/01/01 06:39:51;;;;;;;6.05;1.50;;;6.80;99.90;;;;;;4984911;28;20080;-63
2024/01/01 06:42:17;;;;;;;7.20;1.88;;;6.80;99.90;;;;;;4979096;28;20540;-64
2024/01/01 06:44:43;;;;;;;3.47;1.02;;;6.90;99.90;;;;;;4985721;28;20405;-63
2024/01/01 06:47:09;;;;;;;4.57;1.05;;;6.80;99.90;;;;;;4999591;28;20067;-63
2024/01/01 06:49:34;;;;;;;14.93;1.90;;;6.90;99.90;;;;;;4982683;28;20137;-63
2024/01/01 06:52:01;;;;;;;15.23;2.03;;;6.90;99.90;;;;;;4992055;28;20124;-63
2024/01/01 06:54:26;;;;;;;4.75;1.67;;;6.80;99.90;;;;;;4992871;28;20046;-63
2024/01/01 06:56:52;;;;;;;8.10;1.70;;;6.80;99.90;;;;;;4986168;28;20042;-63
2024/01/01 06:59:18;;;;;;;5.63;1.48;;;6.90;99.90;;;;;;4980383;28;20133;-63
2024/01/01 07:01:44;;;;;;;7.15;1.50;;;7.00;99.90;;;;;;4992153;28;20053;-63
2024/01/01 07:04:14;;;;;;;10.43;2.13;;;6.90;99.90;;;;;;4966240;28;20100;-63
2024/01/01 07:06:39;;;;;;;7.90;1.75;;;6.90;99.90;;;;;;4968560;28;20497;-63
2024/01/01 07:09:07;;;;;;;6.50;1.23;;;7.00;99.90;;;;;;4987031;28;20104;-63
2024/01/01 07:11:33;;;;;;;4.18;1.23;;;6.90;99.90;;;;;;4990431;28;20052;-64
2024/01/01 07:13:59;;;;;;;4.90;1.40;;;6.90;99.90;;;;;;4986714;28;20515;-63
2024/01/01 07:16:24;;;;;;;5.30;1.17;;;6.90;99.90;;;;;;5001784;28;20080;-63
2024/01/01 07:18:53;;;;;;;7.07;1.48;;;7.00;99.90;;;;;;4974540;28;20049;-63
2024/01/01 07:21:19;;;;;;;9.88;1.92;;;6.90;99.90;;;;;;4988972;28;20042;-64
2024/01/01 07:23:44;;;;;;;8.05;1.45;;;7.00;99.90;;;;;;4996807;28;20046;-64
2024/01/01 07:26:10;;;;;;;7.28;1.70;;;7.00;99.90;;;;;;4995032;28;20048;-64
2024/01/01 07:28:36;;;;;;;7.53;1.45;;;7.00;99.90;;;;;;4994698;28;20622;-64
2024/01/01 07:31:01;;;;;;;7.88;1.17;;;7.00;99.90;;;;;;4969728;28;20058;-63
2024/01/01 07:33:27;;;;;;;9.15;1.25;;;7.00;99.90;;;;;;5001293;28;20185;-63
2024/01/01 07:35:53;;;;;;;6.55;1.42;;;7.10;99.90;;;;;;4992675;28;20057;-63
2024/01/01 07:38:19;;;;;;;11.90;2.03;;;7.00;99.90;;;;;;4989861;28;20046;-63
2024/01/01 07:40:44;;;;;;;9.82;1.77;;;7.00;99.90;;;;;;4993710;28;20117;-63
2024/01/01 07:43:10;;;;;;;2.75;0.93;;;7.00;99.90;;;;;;4971049;28;20049;-63
2024/01/01 07:45:36;;;;;;;6.40;1.50;;;7.00;99.90;;;;;;4972016;28;20043;-63
2024/01/01 07:48:01;;;;;;;2.35;1.00;;;7.00;99.90;;;;;;4991012;28;20224;-63
2024/01/01 07:50:27;;;;;;;10.38;1.90;;;6.90;99.90;;;;;;4978782;28;20499;-63
2024/01/01 07:52:53;;;;;;;4.18;0.95;;;7.00;99.90;;;;;;4992076;28;20097;-64
2024/01/01 07:55:18;;;;;;;7.57;1.48;;;7.00;99.90;;;;;;4968213;28;20108;-64
2024/01/01 07:57:46;;;;;;;7.15;1.80;;;7.00;99.90;;;;;;4986126;28;20082;-63
2024/01/01 08:00:12;;;;;;;6.90;1.50;;;7.00;99.90;;;;;;4963955;28;20077;-64
2024/01/01 08:02:39;;;;;;;5.57;1.27;;;7.00;99.90;;;;;;4963944;28;20108;-64
2024/01/01 08:05:05;;;;;;;16.23;2.28;;;7.10;99.90;;;;;;4985925;28;20485;-64
2024/01/01 08:07:30;;;;;;;4.10;0.85;;;7.10;99.90;;;;;;4981159;28;20053;-64
2024/01/01 08:09:56;;;;;;;10.15;2.10;;;7.00;99.90;;;;;;4992607;28;20543;-64
2024/01/01 08:12:22;;;;;;;11.88;1.75;;;7.00;99.90;;;;;;4999679;28;20064;-64
2024/01/01 08:14:48;;;;;;;3.15;0.77;;;7.00;99.90;;;;;;4975714;28;20049;-64
2024/01/01 08:17:14;;;;;;;9.15;1.55;;;7.00;99.90;;;;;;4987075;28;20050;-64
2024/01/01 08:19:39;;;;;;;7.05;1.20;;;6.90;99.90;;;;;;4990633;28;20052;-64
2024/01/01 08:22:05;;;;;;;2.08;0.25;;;6.90;99.90;;;;;;5000553;28;20087;-64
2024/01/01 08:24:31;;;;;;;1.02;0.30;;;6.70;99.90;;;;;;4988870;28;20044;-64
2024/01/01 08:26:57;;;;;;;0.55;0.03;;;6.50;99.90;;;;;;4969790;28;20138;-64
2024/01/01 08:29:23;;;;;;;3.78;0.35;;;6.50;99.90;;;;;;4952748;28;20058;-64
2024/01/01 08:31:49;;;;;;;3.08;0.65;;;6.40;99.90;;;;;;4986086;28;20940;-64
2024/01/01 08:34:15;;;;;;;4.35;0.32;;;6.40;99.90;;;;;;4963667;28;20125;-64
2024/01/01 08:36:40;;;;;;;1.42;0.40;;;6.40;99.90;;;;;;4985298;28;20050;-64
2024/01/01 08:39:09;;;;;;;0.13;0.13;;;6.40;99.90;;;;;;4972236;28;20496;-64
2024/01/01 08:41:42;;;;;;;0.00;0.00;;;6.40;99.90;;;;;;4977854;28;20109;-64
2024/01/01 08:44:08;;;;;;;0.00;0.00;;;6.40;99.90;;;;;;4967455;28;20108;-64
2024/01/01 08:46:34;;;;;;;0.00;0.00;;;6.40;99.90;;;;;;4983566;28;20133;-64
2024/01/01 08:48:59;;;;;;;0.00;0.00;;;6.40;99.90;;;;;;4984272;28;20137;-64
2024/01/01 08:51:25;;;;;;;0.00;0.00;;;6.40;99.90;;;;;;4983836;28;20563;-64
2024/01/01 08:53:50;;;;;;;0.00;0.00;;;6.40;99.90;;;;;;4982713;28;20484;-63
2024/01/01 08:56:16;;;;;;;0.00;0.00;;;6.40;99.90;;;;;;4984004;28;20047;-64
2024/01/01 08:58:42;;;;;;;0.00;0.00;;;6.40;99.90;;;;;;4980168;28;20062;-63
2024/01/01 09:01:07;;;;;;;0.00;0.00;;;6.40;99.90;;;;;;4983406;28;20408;-63
2024/01/01 09:03:33;;;;;;;0.00;0.00;;;6.50;99.90;;;;;;4965550;28;20050;-63
2024/01/01 09:05:59;;;;;;;0.00;0.00;;;6.40;99.90;;;;;;4983821;28;20637;-63
2024/01/01 09:08:25;;;;;;;2.72;0.65;;;6.40;99.90;;;;;;4982794;28;20046;-64
2024/01/01 09:10:51;;;;;;;4.70;0.70;;;6.40;99.90;;;;;;4984444;28;20125;-63
2024/01/01 09:13:18;;;;;;;3.80;0.70;;;6.50;99.90;;;;;;4982606;28;20068;-64
2024/01/01 09:15:43;;;;;;;6.38;1.10;;;6.50;99.90;;;;;;4983229;28;20376;-64
2024/01/01 09:18:09;;;;;;;3.42;0.75;;;6.60;99.90;;;;;;4982706;28;20081;-63
2024/01/01 09:20:35;;;;;;;0.20;0.20;;;6.60;99.90;;;;;;4981872;28;20528;-64
2024/01/01 09:23:00;;;;;;;4.10;1.10;;;6.60;99.90;;;;;;4996730;28;20046;-64
2024/01/01 09:25:26;;;;;;;4.05;0.80;;;6.70;99.90;;;;;;4983007;28;20108;-63
2024/01/01 09:27:52;;;;;;;5.85;0.98;;;6.60;99.90;;;;;;4983683;28;20468;-63
2024/01/01 09:30:18;;;;;;;0.95;0.10;;;6.70;99.90;;;;;;4982667;28;20158;-64
2024/01/01 09:32:46;;;;;;;2.97;0.82;;;6.70;99.90;;;;;;4982807;28;20161;-64
2024/01/01 09:35:11;;;;;;;1.80;0.77;;;6.70;99.90;;;;;;4983445;28;20074;-64
2024/01/01 09:37:37;;;;;;;0.00;0.00;;;6.60;99.90;;;;;;4981317;28;20590;-64
2024/01/01 09:40:05;;;;;;;0.00;0.00;;;6.60;99.90;;;;;;4981790;28;20125;-64
2024/01/01 09:42:32;;;;;;;0.00;0.00;;;6.70;99.90;;;;;;4982511;28;20042;-64
2024/01/01 09:44:57;;;;;;;0.00;0.00;;;6.60;99.90;;;;;;4983499;28;20038;-64
2024/01/01 09:47:23;;;;;;;0.00;0.00;;;6.60;99.90;;;;;;4982397;28;20068;-63
2024/01/01 09:49:49;;;;;;;0.00;0.00;;;6.50;99.90;;;;;;4983781;28;20416;-64
2024/01/01 09:52:15;;;;;;;0.15;0.15;;;6.60;99.90;;;;;;4965059;28;20050;-64
2024/01/01 09:54:44;;;;;;;0.00;0.00;;;6.50;99.90;;;;;;4980534;28;20046;-64
2024/01/01 09:57:09;;;;;;;0.00;0.00;;;6.40;99.90;;;;;;4984151;28;20084;-64
2024/01/01 09:59:36;;;;;;;0.00;0.00;;;6.50;99.90;;;;;;4963371;28;20136;-64
2024/01/01 10:02:07;;;;;;;0.00;0.00;;;6.40;99.90;;;;;;4982723;28;20101;-64
2024/01/01 10:04:33;;;;;;;;;;;6.40;99.90;;;;;;4964832;28;20062;-64
2024/01/01 10:06:59;;;;;;;0.00;0.00;;;6.40;99.90;;;;;;4965995;28;19926;-64
2024/01/01 10:09:24;;;;;;;0.00;0.00;;;6.40;99.90;;;;;;4963029;28;20080;-64
2024/01/01 10:11:50;;;;;;;0.00;0.00;;;6.40;99.90;;;;;;4983192;28;20481;-64
2024/01/01 10:14:16;;;;;;;0.00;0.00;;;6.40;99.90;;;;;;4965301;28;20065;-64
2024/01/01 10:16:42;;;;;;;0.00;0.00;;;6.30;99.90;;;;;;4964830;28;20081;-63
2024/01/01 10:19:08;;;;;;;0.00;0.00;;;6.40;99.90;;;;;;4982369;28;20038;-64
2024/01/01 10:21:36;;;;;;;0.00;0.00;;;6.30;99.90;;;;;;4962998;28;20575;-63
2024/01/01 10:24:21;;;;;;;0.00;0.00;;;6.40;99.90;;;;;;4983266;28;20051;-64
2024/01/01 10:26:48;;;;;;;0.00;0.00;;;6.30;99.90;;;;;;4978837;28;20057;-64
2024/01/01 10:29:15;;;;;;;0.00;0.00;;;6.40;99.90;;;;;;4982939;28;20140;-64
2024/01/01 10:31:50;;;;;;;0.00;0.00;;;6.50;99.90;;;;;;4948671;28;20480;-64
2024/01/01 10:34:18;;;;;;;0.10;0.10;;;6.50;99.90;;;;;;4981356;28;20046;-64
2024/01/01 10:36:44;;;;;;;0.00;0.00;;;6.50;99.90;;;;;;4968273;28;20168;-64
2024/01/01 10:39:11;;;;;;;0.00;0.00;;;6.50;99.90;;;;;;4982079;28;20117;-63
2024/01/01 10:41:40;;;;;;;0.00;0.00;;;6.60;99.90;;;;;;4982361;28;20058;-63
2024/01/01 10:44:09;;;;;;;0.00;0.00;;;6.50;99.90;;;;;;4981448;28;20050;-64
2024/01/01 10:46:39;;;;;;;0.00;0.00;;;6.50;99.90;;;;;;4984496;28;20178;-64
2024/01/01 10:49:15;;;;;;;0.00;0.00;;;6.60;99.90;;;;;;4966679;28;20050;-63
2024/01/01 10:52:18;;;;;;;0.00;0.00;;;6.60;99.90;;;;;;4984092;28;20057;-64
2024/01/01 10:55:24;;;;;;;0.00;0.00;;;6.60;99.90;;;;;;4982584;28;20056;-63
2024/01/01 10:58:11;;;;;;;0.00;0.00;;;6.70;99.90;;;;;;4978583;28;20070;-63
2024/01/01 11:01:06;;;;;;;0.00;0.00;;;6.70;99.90;;;;;;4980490;28;20504;-63
2024/01/01 11:03:34;;;;;;;0.00;0.00;;;6.80;99.90;;;;;;4980313;28;20121;-63
2024/01/01 11:06:27;;;;;;;0.00;0.00;;;6.90;99.90;;;;;;4982678;28;20432;-63
2024/01/01 11:08:57;;;;;;;0.00;0.00;;;6.90;99.90;;;;;;4981699;28;20112;-63
2024/01/01 11:11:30;;;;;;;0.00;0.00;;;7.00;99.90;;;;;;5002299;28;20133;-63
2024/01/01 11:13:57;;;;;;;0.00;0.00;;;7.00;99.90;;;;;;4983382;28;20046;-63
2024/01/01 11:16:24;;;;;;;0.00;0.00;;;7.20;99.90;;;;;;5001288;28;20054;-63
2024/01/01 11:18:51;;;;;;;0.00;0.00;;;7.30;99.90;;;;;;4964764;28;20379;-63
2024/01/01 11:21:30;;;;;;;0.00;0.00;;;7.20;99.90;;;;;;5001042;28;20061;-63
2024/01/01 11:24:01;;;;;;;0.00;0.00;;;7.30;99.90;;;;;;4984202;28;20058;-63
2024/01/01 11:26:34;;;;;;;0.00;0.00;;;7.30;99.90;;;;;;4984428;28;20157;-63
2024/01/01 11:29:22;;;;;;;0.00;0.00;;;7.40;99.90;;;;;;4964804;28;20042;-63
2024/01/01 11:31:48;;;;;;;0.00;0.00;;;7.50;99.90;;;;;;4920247;29;20141;-63
2024/01/01 11:34:18;;;;;;;0.00;0.00;;;7.50;99.90;;;;;;4903637;29;20092;-63
2024/01/01 11:36:44;;;;;;;0.00;0.00;;;7.60;99.90;;;;;;4904983;29;20064;-63
2024/01/01 11:39:10;;;;;;;0.00;0.00;;;7.60;99.90;;;;;;4904087;29;20190;-63
2024/01/01 11:41:36;;;;;;;0.00;0.00;;;7.60;99.90;;;;;;4898304;29;20075;-63
2024/01/01 11:44:13;;;;;;;0.00;0.00;;;7.70;99.90;;;;;;4938096;29;20082;-63
2024/01/01 11:46:39;;;;;;;0.00;0.00;;;7.70;99.90;;;;;;4940304;29;20070;-63
2024/01/01 11:49:05;;;;;;;0.00;0.00;;;7.60;99.90;;;;;;4905480;29;20162;-63
2024/01/01 11:51:32;;;;;;;0.00;0.00;;;7.70;99.90;;;;;;4924022;29;20051;-63
2024/01/01 11:54:04;;;;;;;0.00;0.00;;;7.60;99.90;;;;;;4939712;29;20108;-63
2024/01/01 11:56:30;;;;;;;0.00;0.00;;;7.60;99.90;;;;;;4905793;29;20059;-63
2024/01/01 11:58:57;;;;;;;0.00;0.00;;;7.70;99.90;;;;;;4938950;28;20051;-63
2024/01/01 12:01:23;;;;;;;0.00;0.00;;;7.60;99.90;;;;;;4939168;29;20051;-63
2024/01/01 12:03:48;;;;;;;0.00;0.00;;;7.60;99.90;;;;;;4974821;28;20416;-63
2024/01/01 12:06:15;;;;;;;0.00;0.00;;;7.60;99.90;;;;;;4979328;28;20058;-63
2024/01/01 12:08:42;;;;;;;0.00;0.00;;;7.70;99.90;;;;;;4980486;28;20053;-62
2024/01/01 12:11:07;;;;;;;0.00;0.00;;;7.70;99.90;;;;;;4997866;28;20046;-63
2024/01/01 12:13:33;;;;;;;0.00;0.00;;;7.80;99.90;;;;;;4984307;28;20052;-63
2024/01/01 12:16:16;;;;;;;0.00;0.00;;;7.80;99.90;;;;;;4985506;28;20048;-63
2024/01/01 12:18:41;;;;;;;0.00;0.00;;;7.70;99.90;;;;;;4984054;28;20489;-63
2024/01/01 12:21:07;;;;;;;0.00;0.00;;;7.70;99.90;;;;;;4988431;28;20045;-63
2024/01/01 12:23:33;;;;;;;0.00;0.00;;;7.60;99.90;;;;;;4984530;28;20053;-63
2024/01/01 12:26:03;;;;;;;0.00;0.00;;;7.60;99.90;;;;;;4984835;28;20138;-63
2024/01/01 12:28:29;;;;;;;;;;;7.50;99.90;;;;;;4985525;28;20512;-63
2024/01/01 12:30:55;;;;;;;0.00;0.00;;;7.50;99.90;;;;;;4982665;28;19976;-63
2024/01/01 12:33:20;;;;;;;0.00;0.00;;;7.60;99.90;;;;;;4984306;28;20050;-63
2024/01/01 12:35:46;;;;;;;0.00;0.00;;;7.60;99.90;;;;;;4982765;28;20657;-63
2024/01/01 12:38:13;;;;;;;0.00;0.00;;;7.70;99.90;;;;;;4985064;28;20046;-62
2024/01/01 12:40:39;;;;;;;0.00;0.00;;;7.80;99.90;;;;;;4982837;28;20046;-63
2024/01/01 12:43:05;;;;;;;0.00;0.00;;;7.90;99.90;;;;;;4982706;28;20074;-63
2024/01/01 12:45:31;;;;;;;0.00;0.00;;;8.00;99.90;;;;;;4984468;28;20054;-63
2024/01/01 12:47:57;;;;;;;0.00;0.00;;;8.20;99.90;;;;;;4982334;28;20042;-63
2024/01/01 12:50:22;;;;;;;0.00;0.00;;;8.30;99.90;;;;;;4984880;28;20090;-63
2024/01/01 12:52:48;;;;;;;0.00;0.00;;;8.30;99.90;;;;;;4981521;28;20046;-63
2024/01/01 12:55:16;;;;;;;0.00;0.00;;;8.30;99.90;;;;;;4979212;28;20149;-63
2024/01/01 12:57:41;;;;;;;0.00;0.00;;;8.30;99.90;;;;;;4983477;28;20089;-63
2024/01/01 13:00:09;;;;;;;0.00;0.00;;;8.30;99.90;;;;;;4985231;28;20535;-63
2024/01/01 13:02:35;;;;;;;0.00;0.00;;;8.30;99.90;;;;;;4964492;28;20054;-63
2024/01/01 13:05:03;;;;;;;0.00;0.00;;;8.30;99.90;;;;;;4979682;28;20045;-63
2024/01/01 13:07:29;;;;;;;0.00;0.00;;;8.40;99.90;;;;;;4985296;28;20059;-63
2024/01/01 13:09:55;;;;;;;0.00;0.00;;;8.50;99.90;;;;;;4980792;28;20059;-63
2024/01/01 13:12:20;;;;;;;0.00;0.00;;;8.60;99.90;;;;;;4991903;28;20047;-63
2024/01/01 13:14:46;;;;;;;0.00;0.00;;;8.60;99.90;;;;;;4988490;28;20034;-63
2024/01/01 13:17:12;;;;;;;0.00;0.00;;;8.70;99.90;;;;;;5001520;28;20046;-63
2024/01/01 13:19:38;;;;;;;0.00;0.00;;;8.80;99.90;;;;;;4991023;28;20455;-63
2024/01/01 13:22:04;;;;;;;0.00;0.00;;;8.80;99.90;;;;;;4999790;28;20073;-63
2024/01/01 13:24:30;;;;;;;0.00;0.00;;;8.80;99.90;;;;;;4990575;28;20089;-63
2024/01/01 13:26:59;;;;;;;0.00;0.00;;;8.90;99.90;;;;;;4993943;28;20132;-63
2024/01/01 13:29:26;;;;;;;0.00;0.00;;;8.80;99.90;;;;;;4985934;28;20058;-63
2024/01/01 13:31:52;;;;;;;0.00;0.00;;;8.80;99.90;;;;;;4991168;28;20057;-63
2024/01/01 13:34:17;;;;;;;0.00;0.00;;;8.70;99.90;;;;;;4989312;28;20046;-63
2024/01/01 13:36:43;;;;;;;0.00;0.00;;;8.70;99.90;;;;;;5000401;28;20041;-63
2024/01/01 13:39:09;;;;;;;2.38;0.30;;;8.70;99.90;;;;;;4985094;28;20038;-63
2024/01/01 13:41:34;;;;;;;14.13;1.27;;;8.60;99.90;;;;;;4981952;28;20053;-63
2024/01/01 13:44:00;;;;;;;5.50;1.00;;;8.50;99.90;;;;;;4977442;28;20710;-63
2024/01/01 13:46:26;;;;;;;5.78;0.93;;;8.40;99.90;;;;;;4983069;28;20581;-63
2024/01/01 13:48:52;;;;;;;6.38;0.93;;;8.40;99.90;;;;;;4981744;28;20062;-63
2024/01/01 13:51:18;;;;;;;1.63;0.40;;;8.30;99.90;;;;;;4984337;28;20046;-63
2024/01/01 13:53:45;;;;;;;3.00;0.55;;;8.20;99.90;;;;;;4978337;28;20042;-63
2024/01/01 13:56:18;;;;;;;1.48;0.30;;;8.10;99.90;;;;;;4966410;28;20038;-63
2024/01/01 13:58:44;;;;;;;7.70;0.85;;;8.00;99.90;;;;;;4964248;28;20104;-63
2024/01/01 14:01:10;;;;;;;2.35;0.43;;;8.00;99.90;;;;;;4990731;28;20582;-63
2024/01/01 14:03:37;;;;;;;0.35;0.22;;;8.00;99.90;;;;;;4982910;28;20128;-63
2024/01/01 14:06:05;;;;;;;9.20;1.20;;;8.00;99.90;;;;;;4982088;28;20492;-63
2024/01/01 14:08:31;;;;;;;2.10;0.35;;;7.90;99.90;;;;;;4983456;28;20061;-63
2024/01/01 14:10:57;;;;;;;6.03;1.10;;;7.90;99.90;;;;;;4977569;28;20134;-63
2024/01/01 14:13:24;;;;;;;8.38;1.33;;;7.90;99.90;;;;;;4977420;28;20058;-63
2024/01/01 14:15:50;;;;;;;2.45;0.28;;;7.90;99.90;;;;;;4970585;28;20078;-63
2024/01/01 14:18:16;;;;;;;6.53;1.02;;;7.90;99.90;;;;;;4993630;28;20111;-63
2024/01/01 14:20:42;;;;;;;5.07;0.47;;;7.90;99.90;;;;;;4996329;28;20406;-63
2024/01/01 14:23:09;;;;;;;13.50;2.85;;;8.00;99.90;;;;;;4988879;28;20034;-63
2024/01/01 14:25:36;;;;;;;7.95;1.10;;;8.00;99.90;;;;;;4970979;28;20056;-63
2024/01/01 14:28:02;;;;;;;1.40;0.20;;;8.00;99.90;;;;;;4988049;28;20052;-63
2024/01/01 14:30:29;;;;;;;4.43;0.73;;;7.90;99.90;;;;;;4991356;28;20049;-63